Wright Patterson Air Force Base
KFFO : now visible

Airfield :











YOU CAN JOIN US ON...

 
LOGIN :

Register | Disclaimer

   EN    FR    IT 

 









Legend :    VFR   Marginal VFR   IFR   Intensive IFR   Very Intensive IFR
Visi :
Ceiling :
>= 8 km
>= 3000ft
5 to 8 km
1000 to 3000 ft
1500m to 5 km
500 to 1000 ft
800 to 1500m
200 to 500 ft
< 800m
< 200 ft
Symbols :   Thunderstorms  Fog  Heavy snow  Heavy precipitations  Wind > 20 kt






- Airport Elevation : 823 ft


KFFO - Wright Patterson Air Force Base

CURRENT METAR :
  • 200756Z 18009KT 10SM -RA FEW026 SCT036 OVC075 19/16 A2961 RMK AO2A PRESFR SLP024 P0001 T01920164

EXPIRED METARs :
  • 200742Z 22009G17KT 10SM -RA FEW026 BKN034 BKN050 BKN065 OVC160 20/16 A2963 RMK AO2A LTG DSNT SE SLP031
  • 200656Z 15010KT 10SM SCT170 BKN250 19/15 A2960 RMK AO2A SLP021 T01900149
  • 200556Z 18006KT 10SM FEW050 FEW130 SCT170 18/15 A2961 RMK AO2A SLP025 60001 T01830153 10244 20183 57018

TAF TAF KFFO
Valid from the 20 at 03:00 until the 21 at 09:00 UTC


200300Z 2003/2109 19012KT 9000 -SHRA SCT030 BKN080 OVC150 QNH2967INS
TEMPO 2006/2012 20015G25KT 6000 SHRA VCTS BKN015CB
BECMG 2011/2012 21012KT 9999 NSW SCT020 SCT040 520052 QNH2967INS
TEMPO 2012/2015 22015G25KT 520003
TEMPO 2015/2021 22020G35KT 520003 TX31/2019Z TN20/2009Z
KZID FIR / North America



MET'MAP, your aeronautical weather chart ! - Copyright ORBIFLY December 2007 - Disclaimer

ORBIFLY MET'MAP TEAM :

Programming & Development : Alexandra Zaïnal
Original concept : Baudouin d'Aumeries
Technical & hardware support : Manuel Goepfert
Assistance : Marc-Olivier Méhu

Contact : metmap@orbifly.com




SOURCES & CREDITS :

   NOAA       Earth
Advisory